createdAt,value
2022-11-23T00:00:47.040Z,1.08
2022-11-23T00:03:17.059Z,0.90
2022-11-23T00:05:44.874Z,0.80
2022-11-23T00:08:12.704Z,0.77
2022-11-23T00:10:40.599Z,0.98
2022-11-23T00:13:08.456Z,0.82
2022-11-23T00:15:36.577Z,1.00
2022-11-23T00:18:04.471Z,1.10
2022-11-23T00:20:33.644Z,1.02
2022-11-23T00:23:01.519Z,0.70
2022-11-23T00:25:29.623Z,0.95
2022-11-23T00:27:57.450Z,0.90
2022-11-23T00:30:25.356Z,0.88
2022-11-23T00:32:55.426Z,0.80
2022-11-23T00:35:24.087Z,1.00
2022-11-23T00:37:53.223Z,0.77
2022-11-23T00:40:21.056Z,0.90
2022-11-23T00:42:48.863Z,0.90
2022-11-23T00:45:16.744Z,0.80
2022-11-23T00:47:44.690Z,0.95
2022-11-23T00:50:12.503Z,0.82
2022-11-23T00:52:40.287Z,0.70
2022-11-23T00:55:10.168Z,0.68
2022-11-23T00:57:38.627Z,0.70
2022-11-23T01:00:08.545Z,0.70
2022-11-23T01:02:37.105Z,0.70
2022-11-23T01:05:05.125Z,0.77
2022-11-23T01:07:33.457Z,0.70
2022-11-23T01:10:01.316Z,0.70
2022-11-23T01:12:30.924Z,0.60
2022-11-23T01:14:58.829Z,0.70
2022-11-23T01:17:26.655Z,0.80
2022-11-23T01:19:54.434Z,0.80
2022-11-23T01:22:22.844Z,0.60
2022-11-23T01:24:50.936Z,0.68
2022-11-23T01:27:18.711Z,0.57
2022-11-23T01:29:47.885Z,0.90
2022-11-23T01:32:15.696Z,0.60
2022-11-23T01:34:43.491Z,0.70
2022-11-23T01:37:12.131Z,0.50
2022-11-23T01:39:40.191Z,0.90
2022-11-23T01:42:08.696Z,0.90
2022-11-23T01:44:38.513Z,0.80
2022-11-23T01:47:10.050Z,0.80
2022-11-23T01:49:41.819Z,0.65
2022-11-23T01:52:14.631Z,0.57
2022-11-23T01:54:47.651Z,0.93
2022-11-23T01:57:20.402Z,0.88
2022-11-23T01:59:49.002Z,0.80
2022-11-23T02:02:18.410Z,1.08
2022-11-23T02:04:51.572Z,1.00
2022-11-23T02:07:21.623Z,0.60
2022-11-23T02:09:50.296Z,0.77
2022-11-23T02:12:18.172Z,0.60
2022-11-23T02:14:46.782Z,0.70
2022-11-23T02:17:14.996Z,1.02
2022-11-23T02:19:55.431Z,0.80
2022-11-23T02:22:30.477Z,0.80
2022-11-23T02:25:01.283Z,0.80
2022-11-23T02:27:30.985Z,0.80
2022-11-23T02:30:01.321Z,0.77
2022-11-23T02:32:30.620Z,0.75
2022-11-23T02:34:58.408Z,0.75
2022-11-23T02:37:26.641Z,0.70
2022-11-23T02:39:57.469Z,0.75
2022-11-23T02:42:26.760Z,0.70
2022-11-23T02:45:06.528Z,0.57
2022-11-23T02:47:34.381Z,0.60
2022-11-23T02:50:02.281Z,0.70
2022-11-23T02:52:30.110Z,0.80
2022-11-23T02:54:58.372Z,0.73
2022-11-23T02:57:26.207Z,0.68
2022-11-23T02:59:53.974Z,0.80
2022-11-23T03:02:23.204Z,0.77
2022-11-23T03:04:51.010Z,0.80
2022-11-23T03:07:21.295Z,0.75
2022-11-23T03:09:50.360Z,0.70
2022-11-23T03:12:19.776Z,0.80
2022-11-23T03:14:48.339Z,1.00
2022-11-23T03:17:18.202Z,1.00
2022-11-23T03:19:48.294Z,0.75
2022-11-23T03:22:16.161Z,0.70
2022-11-23T03:24:44.003Z,0.90
2022-11-23T03:27:16.682Z,0.80
2022-11-23T03:29:45.225Z,0.90
2022-11-23T03:34:50.490Z,0.90
2022-11-23T03:37:20.526Z,0.73
2022-11-23T03:39:51.244Z,0.80
2022-11-23T03:42:41.478Z,1.00
2022-11-23T03:45:10.653Z,0.93
2022-11-23T03:47:38.622Z,0.95
2022-11-23T03:50:09.368Z,0.95
2022-11-23T03:52:38.319Z,0.80
2022-11-23T03:55:07.067Z,0.85
2022-11-23T03:57:35.371Z,0.90
2022-11-23T04:00:05.441Z,1.00
2022-11-23T04:02:41.068Z,0.90
2022-11-23T04:05:28.157Z,0.88
2022-11-23T04:08:22.081Z,1.10
2022-11-23T04:10:50.555Z,0.95
2022-11-23T04:13:23.405Z,1.00
2022-11-23T04:15:51.306Z,1.00
2022-11-23T04:18:19.266Z,0.93
2022-11-23T04:20:48.622Z,1.00
2022-11-23T04:23:17.381Z,0.90
2022-11-23T04:25:46.397Z,1.05
2022-11-23T04:28:15.023Z,1.10
2022-11-23T04:30:45.069Z,0.98
2022-11-23T04:33:13.738Z,1.17
2022-11-23T04:35:41.578Z,1.10
2022-11-23T04:38:10.932Z,1.30
2022-11-23T04:40:39.032Z,1.23
2022-11-23T04:43:09.835Z,1.00
2022-11-23T04:45:40.336Z,1.02
2022-11-23T04:48:13.779Z,1.10
2022-11-23T04:50:46.625Z,1.05
2022-11-23T04:53:21.052Z,1.00
2022-11-23T04:55:48.948Z,1.00
2022-11-23T04:58:18.062Z,1.13
2022-11-23T05:00:51.734Z,1.00
2022-11-23T05:03:19.965Z,1.00
2022-11-23T05:05:47.723Z,1.10
2022-11-23T05:08:15.573Z,1.20
2022-11-23T05:11:07.036Z,1.25
2022-11-23T05:13:34.912Z,1.20
2022-11-23T05:16:04.256Z,1.63
2022-11-23T05:18:32.172Z,0.95
2022-11-23T05:21:00.045Z,1.30
2022-11-23T05:23:28.126Z,1.23
2022-11-23T05:25:56.332Z,1.00
2022-11-23T05:28:41.754Z,0.98
2022-11-23T05:31:13.764Z,1.13
2022-11-23T05:33:43.593Z,0.88
2022-11-23T05:36:13.724Z,1.13
2022-11-23T05:38:42.712Z,1.20
2022-11-23T05:41:15.899Z,1.30
2022-11-23T05:43:46.467Z,1.13
2022-11-23T05:46:20.167Z,1.00
2022-11-23T05:48:48.341Z,1.00
2022-11-23T05:51:16.093Z,1.17
2022-11-23T05:53:45.926Z,1.20
2022-11-23T05:56:37.372Z,1.00
2022-11-23T05:59:17.440Z,1.30
2022-11-23T06:01:50.089Z,1.27
2022-11-23T06:04:25.200Z,1.02
2022-11-23T06:06:54.445Z,1.10
2022-11-23T06:09:22.251Z,1.02
2022-11-23T06:11:52.914Z,1.40
2022-11-23T06:14:23.027Z,1.42
2022-11-23T06:16:52.041Z,0.95
2022-11-23T06:19:40.106Z,1.30
2022-11-23T06:22:08.330Z,1.20
2022-11-23T06:24:43.374Z,1.65
2022-11-23T06:27:37.425Z,1.15
2022-11-23T06:30:15.808Z,1.40
2022-11-23T06:32:44.190Z,1.10
2022-11-23T06:35:11.995Z,1.30
2022-11-23T06:37:42.046Z,1.02
2022-11-23T06:40:11.428Z,1.33
2022-11-23T06:42:40.952Z,1.70
2022-11-23T06:45:32.722Z,1.48
2022-11-23T06:48:05.318Z,1.17
2022-11-23T06:50:40.176Z,1.75
2022-11-23T06:53:08.324Z,1.80
2022-11-23T06:55:43.627Z,1.75
2022-11-23T06:58:13.311Z,1.45
2022-11-23T07:00:42.712Z,1.95
2022-11-23T07:03:19.418Z,1.60
2022-11-23T07:05:48.206Z,1.48
2022-11-23T07:08:16.155Z,1.20
2022-11-23T07:10:43.987Z,1.13
2022-11-23T07:13:15.699Z,1.17
2022-11-23T07:15:44.989Z,1.40
2022-11-23T07:18:13.229Z,1.27
2022-11-23T07:20:47.908Z,1.20
2022-11-23T07:23:15.773Z,0.90
2022-11-23T07:25:43.774Z,1.25
2022-11-23T07:28:13.635Z,1.20
2022-11-23T07:30:41.577Z,1.10
2022-11-23T07:33:13.319Z,0.90
2022-11-23T07:35:42.601Z,0.90
2022-11-23T07:38:10.338Z,1.00
2022-11-23T07:40:39.558Z,1.40
2022-11-23T07:43:13.764Z,0.88
2022-11-23T07:45:41.693Z,1.20
2022-11-23T07:48:16.595Z,0.90
2022-11-23T07:50:47.932Z,1.05
2022-11-23T07:53:17.665Z,1.30
2022-11-23T07:55:45.517Z,1.10
2022-11-23T07:58:13.858Z,1.00
2022-11-23T08:00:41.866Z,1.40
2022-11-23T08:03:29.861Z,1.20
2022-11-23T08:05:59.655Z,1.00
2022-11-23T08:08:27.572Z,1.20
2022-11-23T08:10:55.405Z,1.30
2022-11-23T08:13:23.798Z,1.10
2022-11-23T08:15:55.479Z,1.30
2022-11-23T08:18:24.588Z,1.48
2022-11-23T08:20:52.603Z,1.20
2022-11-23T08:23:22.411Z,1.20
2022-11-23T08:25:50.204Z,1.35
2022-11-23T08:28:18.688Z,1.50
2022-11-23T08:30:46.976Z,1.38
2022-11-23T08:33:15.428Z,1.45
2022-11-23T08:35:43.854Z,1.30
2022-11-23T08:38:12.168Z,1.40
2022-11-23T08:40:41.471Z,1.50
2022-11-23T08:43:09.421Z,1.40
2022-11-23T08:45:37.395Z,1.48
2022-11-23T08:48:06.097Z,1.20
2022-11-23T08:50:35.755Z,1.17
2022-11-23T08:53:03.566Z,1.50
2022-11-23T08:55:31.344Z,1.30
2022-11-23T08:58:04.065Z,1.33
2022-11-23T09:00:34.026Z,1.60
2022-11-23T09:03:02.315Z,1.30
2022-11-23T09:05:31.342Z,1.38
2022-11-23T09:08:01.801Z,1.83
2022-11-23T09:10:29.784Z,1.58
2022-11-23T09:12:57.805Z,1.27
2022-11-23T09:15:27.307Z,1.50
2022-11-23T09:17:55.261Z,1.40
2022-11-23T09:20:23.165Z,1.75
2022-11-23T09:22:56.605Z,1.48
2022-11-23T09:25:25.287Z,1.27
2022-11-23T09:27:59.491Z,1.20
2022-11-23T09:30:29.131Z,1.50
2022-11-23T09:32:59.960Z,1.50
2022-11-23T09:35:27.915Z,1.50
2022-11-23T09:37:57.453Z,1.55
2022-11-23T09:40:26.834Z,1.33
2022-11-23T09:43:32.525Z,1.27
2022-11-23T09:46:10.898Z,1.50
2022-11-23T09:49:01.239Z,1.50
2022-11-23T09:51:32.119Z,1.20
2022-11-23T09:54:05.177Z,1.15
2022-11-23T09:56:35.703Z,1.50
2022-11-23T09:59:11.649Z,1.48
2022-11-23T10:01:44.758Z,1.45
2022-11-23T10:04:18.672Z,2.10
2022-11-23T10:06:53.471Z,1.40
2022-11-23T10:09:33.337Z,1.55
2022-11-23T10:12:23.366Z,1.40
2022-11-23T10:15:10.847Z,1.35
2022-11-23T10:17:59.269Z,1.50
2022-11-23T10:20:55.551Z,1.65
2022-11-23T10:23:37.481Z,1.90
2022-11-23T10:26:05.522Z,1.50
2022-11-23T10:28:36.346Z,1.65
2022-11-23T10:31:13.854Z,1.45
2022-11-23T10:33:50.660Z,1.50
2022-11-23T10:36:18.533Z,1.88
2022-11-23T10:38:50.621Z,1.40
2022-11-23T10:41:18.835Z,1.50
2022-11-23T10:43:54.894Z,1.20
2022-11-23T10:46:41.419Z,1.40
2022-11-23T10:49:17.395Z,1.73
2022-11-23T10:51:57.137Z,1.30
2022-11-23T10:54:29.055Z,1.45
2022-11-23T10:56:58.309Z,1.67
2022-11-23T10:59:35.116Z,1.40
2022-11-23T11:02:15.049Z,1.42
2022-11-23T11:04:44.851Z,1.40
2022-11-23T11:07:23.749Z,1.30
2022-11-23T11:09:56.758Z,1.20
2022-11-23T11:12:25.600Z,1.23
2022-11-23T11:15:05.202Z,1.75
2022-11-23T11:17:39.401Z,1.27
2022-11-23T11:23:02.998Z,1.52
2022-11-23T11:25:35.750Z,1.10
2022-11-23T11:28:05.513Z,1.30
2022-11-23T11:30:46.622Z,1.10
2022-11-23T11:33:21.005Z,1.20
2022-11-23T11:35:52.996Z,1.10
2022-11-23T11:38:27.852Z,1.40
2022-11-23T11:40:58.727Z,1.00
2022-11-23T11:43:39.097Z,1.35
2022-11-23T11:46:30.168Z,1.60
2022-11-23T11:49:01.107Z,1.10
2022-11-23T11:51:33.412Z,1.10
2022-11-23T11:54:07.553Z,0.93
2022-11-23T11:56:39.088Z,1.08
2022-11-23T11:59:15.974Z,1.05
2022-11-23T12:01:52.502Z,1.00
2022-11-23T12:04:29.053Z,1.10
2022-11-23T12:07:06.288Z,1.40
2022-11-23T12:09:44.775Z,1.40
2022-11-23T12:12:16.674Z,1.10
2022-11-23T12:14:46.762Z,1.02
2022-11-23T12:17:34.601Z,1.27
2022-11-23T12:20:12.622Z,1.30
2022-11-23T12:22:53.132Z,1.80
2022-11-23T12:25:30.794Z,2.85
2022-11-23T12:28:10.851Z,2.00
2022-11-23T12:30:48.906Z,2.33
2022-11-23T12:33:40.288Z,1.85
2022-11-23T12:36:27.091Z,1.70
2022-11-23T12:38:57.096Z,1.63
2022-11-23T12:41:38.340Z,1.70
2022-11-23T12:44:38.824Z,1.90
2022-11-23T12:47:17.951Z,1.38
2022-11-23T12:49:52.130Z,1.30
2022-11-23T12:52:36.481Z,1.27
2022-11-23T12:55:20.306Z,1.40
2022-11-23T12:57:57.361Z,1.20
2022-11-23T13:00:28.288Z,1.20
2022-11-23T13:03:29.737Z,1.27
2022-11-23T13:06:22.144Z,1.33
2022-11-23T13:09:04.558Z,1.10
2022-11-23T13:11:46.153Z,1.02
2022-11-23T13:14:25.739Z,1.33
2022-11-23T13:17:18.430Z,1.20
2022-11-23T13:20:13.932Z,1.13
2022-11-23T13:22:45.984Z,1.30
2022-11-23T13:25:32.480Z,0.93
2022-11-23T13:28:05.580Z,1.10
2022-11-23T13:31:07.323Z,1.02
2022-11-23T13:33:37.645Z,1.05
2022-11-23T13:36:13.892Z,0.98
2022-11-23T13:38:46.509Z,1.10
2022-11-23T13:41:57.109Z,1.13
2022-11-23T13:44:27.846Z,1.20
2022-11-23T13:47:06.725Z,1.10
2022-11-23T13:49:42.897Z,1.00
2022-11-23T13:52:32.756Z,1.35
2022-11-23T13:55:09.861Z,1.30
2022-11-23T13:57:39.426Z,1.10
2022-11-23T14:00:47.373Z,1.40
2022-11-23T14:03:48.996Z,1.23
2022-11-23T14:06:24.682Z,1.00
2022-11-23T14:08:59.580Z,1.30
2022-11-23T14:11:28.895Z,1.00
2022-11-23T14:14:02.075Z,1.30
2022-11-23T14:16:50.987Z,1.20
2022-11-23T14:19:24.398Z,1.27
2022-11-23T14:22:04.606Z,1.40
2022-11-23T14:25:00.526Z,1.30
2022-11-23T14:27:47.904Z,1.42
2022-11-23T14:30:24.907Z,1.65
2022-11-23T14:33:04.474Z,1.40
2022-11-23T14:35:45.843Z,1.33
2022-11-23T14:38:55.596Z,1.60
2022-11-23T14:41:25.674Z,1.60
2022-11-23T14:43:55.272Z,1.73
2022-11-23T14:46:25.662Z,1.48
2022-11-23T14:49:03.497Z,1.30
2022-11-23T14:51:34.023Z,1.60
2022-11-23T14:54:09.268Z,1.58
2022-11-23T14:56:40.281Z,1.60
2022-11-23T14:59:11.287Z,1.90
2022-11-23T15:01:42.124Z,1.50
2022-11-23T15:04:22.347Z,1.50
2022-11-23T15:06:56.911Z,1.88
2022-11-23T15:09:38.064Z,1.50
2022-11-23T15:12:20.679Z,1.40
2022-11-23T15:14:48.896Z,1.60
2022-11-23T15:17:19.173Z,1.50
2022-11-23T15:19:55.532Z,1.73
2022-11-23T15:22:25.617Z,1.52
2022-11-23T15:24:53.701Z,1.60
2022-11-23T15:27:28.258Z,1.55
2022-11-23T15:29:58.067Z,1.60
2022-11-23T15:32:33.211Z,1.60
2022-11-23T15:35:06.804Z,1.60
2022-11-23T15:37:42.226Z,1.40
2022-11-23T15:40:13.954Z,1.70
2022-11-23T15:42:43.003Z,1.77
2022-11-23T15:45:36.338Z,1.60
2022-11-23T15:50:34.412Z,1.58
2022-11-23T15:53:03.980Z,1.60
2022-11-23T15:55:31.985Z,1.48
2022-11-23T15:58:02.597Z,1.60
2022-11-23T16:00:31.253Z,1.48
2022-11-23T16:03:31.714Z,1.48
2022-11-23T16:06:36.810Z,1.65
2022-11-23T16:09:53.299Z,1.23
2022-11-23T16:12:28.770Z,1.70
2022-11-23T16:14:58.396Z,1.55
2022-11-23T16:17:27.537Z,1.40
2022-11-23T16:19:57.165Z,1.90
2022-11-23T16:22:30.357Z,2.05
2022-11-23T16:25:08.028Z,1.80
2022-11-23T16:27:37.259Z,1.90
2022-11-23T16:30:05.992Z,1.77
2022-11-23T16:32:33.813Z,1.92
2022-11-23T16:35:18.384Z,1.83
2022-11-23T16:37:47.044Z,2.35
2022-11-23T16:40:16.799Z,7.72
2022-11-23T16:42:44.936Z,7.28
2022-11-23T16:45:12.797Z,10.68
2022-11-23T16:47:53.070Z,6.75
2022-11-23T16:50:21.277Z,7.80
2022-11-23T16:52:49.080Z,8.00
2022-11-23T16:55:18.453Z,5.03
2022-11-23T16:57:47.051Z,4.15
2022-11-23T17:00:19.010Z,2.70
2022-11-23T17:02:46.914Z,1.93
2022-11-23T17:05:16.461Z,2.80
2022-11-23T17:07:44.445Z,2.28
2022-11-23T17:10:13.040Z,2.13
2022-11-23T17:12:48.537Z,2.30
2022-11-23T17:15:24.446Z,3.35
2022-11-23T17:17:52.469Z,3.70
2022-11-23T17:20:20.560Z,2.38
2022-11-23T17:22:51.519Z,2.00
2022-11-23T17:25:20.218Z,1.75
2022-11-23T17:27:49.434Z,2.10
2022-11-23T17:30:20.712Z,1.60
2022-11-23T17:32:49.083Z,2.08
2022-11-23T17:35:17.589Z,1.88
2022-11-23T17:37:46.448Z,1.80
2022-11-23T17:40:16.294Z,1.80
2022-11-23T17:42:44.328Z,1.70
2022-11-23T17:45:14.604Z,2.13
2022-11-23T17:47:44.793Z,2.22
2022-11-23T17:50:17.506Z,1.85
2022-11-23T17:52:45.515Z,1.40
2022-11-23T17:55:14.053Z,1.70
2022-11-23T17:57:42.408Z,1.40
2022-11-23T18:00:18.358Z,1.40
2022-11-23T18:02:46.341Z,1.50
2022-11-23T18:05:20.857Z,1.48
2022-11-23T18:07:49.724Z,1.25
2022-11-23T18:10:18.140Z,1.40
2022-11-23T18:12:46.181Z,1.30
2022-11-23T18:15:15.857Z,1.20
2022-11-23T18:17:44.212Z,1.40
2022-11-23T18:20:13.317Z,1.23
2022-11-23T18:22:41.199Z,1.27
2022-11-23T18:25:09.873Z,1.23
2022-11-23T18:27:37.728Z,1.10
2022-11-23T18:30:06.689Z,2.00
2022-11-23T18:32:36.017Z,2.28
2022-11-23T18:35:05.090Z,1.92
2022-11-23T18:37:33.017Z,3.92
2022-11-23T18:40:00.817Z,2.40
2022-11-23T18:42:28.637Z,1.85
2022-11-23T18:44:56.785Z,1.90
2022-11-23T18:47:25.032Z,1.88
2022-11-23T18:49:58.802Z,1.80
2022-11-23T18:52:29.855Z,1.80
2022-11-23T18:54:59.640Z,1.85
2022-11-23T18:57:27.539Z,2.25
2022-11-23T18:59:58.272Z,1.83
2022-11-23T19:02:26.771Z,2.05
2022-11-23T19:04:55.974Z,5.38
2022-11-23T19:07:27.112Z,4.40
2022-11-23T19:09:55.397Z,3.17
2022-11-23T19:12:23.308Z,2.97
2022-11-23T19:14:51.139Z,2.65
2022-11-23T19:17:19.110Z,2.60
2022-11-23T19:19:46.946Z,2.22
2022-11-23T19:22:19.040Z,2.05
2022-11-23T19:24:46.877Z,1.98
2022-11-23T19:27:14.617Z,2.38
2022-11-23T19:29:42.542Z,2.33
2022-11-23T19:32:10.494Z,2.20
2022-11-23T19:34:38.365Z,2.50
2022-11-23T19:37:06.205Z,1.92
2022-11-23T19:39:36.294Z,2.50
2022-11-23T19:42:06.985Z,2.78
2022-11-23T19:44:35.059Z,2.80
2022-11-23T19:47:05.167Z,2.30
2022-11-23T19:49:35.357Z,2.42
2022-11-23T19:52:05.157Z,2.70
2022-11-23T19:54:33.204Z,2.85
2022-11-23T19:57:02.426Z,3.10
2022-11-23T19:59:30.497Z,2.63
2022-11-23T20:01:58.420Z,2.30
2022-11-23T20:04:26.318Z,2.00
2022-11-23T20:06:54.113Z,1.95
2022-11-23T20:09:22.635Z,2.22
2022-11-23T20:11:51.577Z,2.00
2022-11-23T20:14:21.314Z,2.17
2022-11-23T20:16:49.365Z,1.90
2022-11-23T20:19:17.193Z,2.40
2022-11-23T20:21:45.043Z,1.90
2022-11-23T20:24:14.547Z,1.92
2022-11-23T20:26:43.254Z,2.30
2022-11-23T20:29:11.671Z,2.03
2022-11-23T20:31:41.039Z,2.03
2022-11-23T20:34:13.127Z,2.00
2022-11-23T20:36:43.600Z,2.00
2022-11-23T20:39:12.465Z,1.92
2022-11-23T20:41:40.613Z,2.50
2022-11-23T20:44:12.134Z,1.90
2022-11-23T20:49:31.029Z,3.00
2022-11-23T20:51:58.904Z,2.05
2022-11-23T20:54:26.997Z,2.28
2022-11-23T20:56:54.906Z,2.28
2022-11-23T20:59:23.848Z,2.03
2022-11-23T21:01:53.283Z,2.30
2022-11-23T21:04:21.236Z,2.13
2022-11-23T21:06:49.020Z,2.30
2022-11-23T21:09:17.258Z,2.22
2022-11-23T21:12:02.872Z,2.78
2022-11-23T21:14:32.914Z,2.58
2022-11-23T21:17:02.677Z,3.03
2022-11-23T21:19:32.015Z,2.50
2022-11-23T21:22:03.422Z,2.55
2022-11-23T21:24:31.630Z,2.63
2022-11-23T21:26:59.870Z,2.28
2022-11-23T21:29:28.320Z,2.58
2022-11-23T21:31:56.093Z,2.42
2022-11-23T21:34:27.411Z,2.53
2022-11-23T21:36:57.083Z,2.33
2022-11-23T21:39:25.173Z,2.38
2022-11-23T21:41:54.543Z,2.47
2022-11-23T21:44:23.140Z,2.88
2022-11-23T21:46:51.601Z,2.80
2022-11-23T21:49:19.527Z,3.05
2022-11-23T21:51:49.463Z,2.70
2022-11-23T21:54:17.330Z,2.63
2022-11-23T21:56:46.817Z,2.95
2022-11-23T21:59:15.143Z,2.70
2022-11-23T22:01:43.221Z,2.53
2022-11-23T22:04:13.140Z,2.85
2022-11-23T22:06:42.049Z,2.53
2022-11-23T22:09:12.272Z,2.58
2022-11-23T22:11:41.804Z,2.28
2022-11-23T22:14:12.718Z,2.50
2022-11-23T22:16:42.619Z,2.20
2022-11-23T22:19:12.232Z,2.30
2022-11-23T22:21:41.512Z,2.40
2022-11-23T22:24:13.518Z,2.40
2022-11-23T22:26:41.449Z,2.60
2022-11-23T22:29:09.649Z,2.50
2022-11-23T22:31:38.171Z,2.95
2022-11-23T22:34:07.363Z,3.25
2022-11-23T22:36:35.397Z,2.85
2022-11-23T22:39:05.954Z,2.90
2022-11-23T22:41:37.036Z,2.90
2022-11-23T22:44:06.786Z,3.22
2022-11-23T22:46:34.824Z,3.55
2022-11-23T22:49:03.029Z,3.00
2022-11-23T22:51:30.902Z,2.88
2022-11-23T22:54:00.149Z,3.30
2022-11-23T22:56:29.463Z,2.97
2022-11-23T22:58:58.900Z,2.60
2022-11-23T23:01:28.507Z,2.80
2022-11-23T23:03:57.749Z,3.10
2022-11-23T23:06:27.643Z,2.83
2022-11-23T23:08:57.958Z,3.05
2022-11-23T23:11:26.844Z,3.20
2022-11-23T23:13:55.111Z,3.22
2022-11-23T23:16:24.958Z,3.28
2022-11-23T23:18:53.122Z,3.05
2022-11-23T23:21:22.256Z,3.38
2022-11-23T23:23:51.362Z,2.90
2022-11-23T23:26:21.643Z,3.55
2022-11-23T23:28:50.900Z,3.20
2022-11-23T23:31:18.861Z,3.03
2022-11-23T23:33:48.161Z,3.38
2022-11-23T23:36:16.853Z,3.10
2022-11-23T23:38:44.944Z,2.47
2022-11-23T23:41:13.776Z,2.80
2022-11-23T23:43:41.956Z,2.45
2022-11-23T23:46:11.342Z,2.63
2022-11-23T23:48:40.327Z,2.22
2022-11-23T23:51:11.039Z,2.70
2022-11-23T23:53:39.804Z,2.35
2022-11-23T23:56:11.398Z,2.17
2022-11-23T23:58:39.277Z,2.65
